Time;durP1;ratioP1;P1;durP2;ratioP2;P2;SDS_P1;SDS_P2;PMS_P1;PMS_P2;Temp;Humidity;BMP_temperature;BMP_pressure;BME280_temperature;BME280_humidity;BME280_pressure;Samples;Min_cycle;Max_cycle;Signal;HPM_P1;HPM_P2
2022/11/16 00:00:20;;;;;;;19.80;14.37;;;;;;;-145.18;100.00;46656.50;4992109;28;20048;-68
2022/11/16 00:02:47;;;;;;;20.63;14.47;;;;;;;-145.18;100.00;46652.59;4991726;28;20399;-68
2022/11/16 00:05:12;;;;;;;17.93;14.10;;;;;;;-145.18;100.00;46654.53;4974632;28;20058;-68
2022/11/16 00:07:38;;;;;;;22.20;13.57;;;;;;;-145.18;100.00;46658.44;4991919;28;20026;-68
2022/11/16 00:10:04;;;;;;;18.40;13.03;;;;;;;-145.18;100.00;46656.50;4991408;28;20153;-68
2022/11/16 00:12:29;;;;;;;19.70;14.63;;;;;;;-145.18;100.00;46656.50;4991618;28;20034;-68
2022/11/16 00:14:54;;;;;;;21.57;13.07;;;;;;;-145.18;100.00;46650.63;4991661;28;20407;-68
2022/11/16 00:17:20;;;;;;;18.53;13.77;;;;;;;-145.18;100.00;46654.53;4991732;28;20038;-68
2022/11/16 00:19:46;;;;;;;21.23;14.13;;;;;;;-145.18;100.00;46648.69;4991597;28;20107;-68
2022/11/16 00:22:11;;;;;;;19.80;13.33;;;;;;;-145.18;100.00;46656.50;4991144;28;20022;-68
2022/11/16 00:24:37;;;;;;;16.83;13.00;;;;;;;-145.18;100.00;46650.63;4991623;28;20446;-68
2022/11/16 00:27:02;;;;;;;17.70;13.40;;;;;;;-145.18;100.00;46654.53;4991263;28;20119;-68
2022/11/16 00:29:28;;;;;;;16.87;13.13;;;;;;;-145.18;100.00;46652.59;4991656;28;20030;-68
2022/11/16 00:31:54;;;;;;;17.97;13.83;;;;;;;-145.18;100.00;46658.44;4990990;28;20516;-68
2022/11/16 00:34:21;;;;;;;19.40;13.37;;;;;;;-145.18;100.00;46652.59;4991415;28;20048;-67
2022/11/16 00:36:46;;;;;;;17.57;13.83;;;;;;;-145.18;100.00;46656.50;4991230;28;20026;-68
2022/11/16 00:39:13;;;;;;;19.43;13.37;;;;;;;-145.18;100.00;46656.50;4973845;28;20076;-68
2022/11/16 00:41:39;;;;;;;18.13;13.67;;;;;;;-145.18;100.00;46652.59;4991081;28;20088;-68
2022/11/16 00:44:05;;;;;;;21.60;14.20;;;;;;;-145.18;100.00;46656.50;4990018;28;20038;-68
2022/11/16 00:46:30;;;;;;;19.93;13.37;;;;;;;-145.18;100.00;46650.63;4991324;28;20095;-68
2022/11/16 00:48:56;;;;;;;17.00;14.10;;;;;;;-145.18;100.00;46658.44;4991079;28;20404;-68
2022/11/16 00:51:21;;;;;;;17.23;13.10;;;;;;;-145.18;100.00;46658.44;4991022;28;20070;-68
2022/11/16 00:53:46;;;;;;;17.43;13.97;;;;;;;-145.18;100.00;46656.50;4991114;28;20035;-68
2022/11/16 00:56:12;;;;;;;16.33;13.87;;;;;;;-145.18;100.00;46656.50;4990786;28;20038;-68
2022/11/16 00:58:37;;;;;;;19.63;15.13;;;;;;;-145.18;100.00;46652.59;4991068;28;20101;-68
2022/11/16 01:01:07;;;;;;;18.10;14.90;;;;;;;-145.18;100.00;46652.59;4990281;28;20039;-68
2022/11/16 01:03:33;;;;;;;22.43;14.80;;;;;;;-145.18;100.00;46654.53;4990865;28;20511;-68
2022/11/16 01:06:01;;;;;;;21.93;15.77;;;;;;;-145.18;100.00;46650.63;4990691;28;20049;-68
2022/11/16 01:08:27;;;;;;;17.77;14.47;;;;;;;-145.18;100.00;46656.50;4991346;28;20049;-68
2022/11/16 01:10:52;;;;;;;17.07;14.93;;;;;;;-145.18;100.00;46660.41;4990561;28;20030;-68
2022/11/16 01:13:18;;;;;;;19.67;14.93;;;;;;;-145.18;100.00;46656.50;4990868;28;20046;-68
2022/11/16 01:15:47;;;;;;;18.00;14.97;;;;;;;-145.18;100.00;46658.44;4989739;28;20114;-67
2022/11/16 01:18:12;;;;;;;19.80;14.50;;;;;;;-145.18;100.00;46658.44;4990610;28;20034;-68
2022/11/16 01:20:39;;;;;;;18.30;14.43;;;;;;;-145.18;100.00;46660.41;4990962;28;20554;-68
2022/11/16 01:23:05;;;;;;;20.47;15.17;;;;;;;-145.18;100.00;46656.50;4990656;28;20073;-68
2022/11/16 01:25:30;;;;;;;19.97;15.17;;;;;;;-145.18;100.00;46654.53;4990798;28;20465;-68
2022/11/16 01:27:55;;;;;;;21.20;15.30;;;;;;;-145.18;100.00;46658.44;4990355;28;20092;-68
2022/11/16 01:30:21;;;;;;;22.57;14.93;;;;;;;-145.18;100.00;46654.53;4990836;28;20490;-68
2022/11/16 01:32:46;;;;;;;21.17;15.37;;;;;;;-145.18;100.00;46654.53;4990652;28;20034;-68
2022/11/16 01:35:16;;;;;;;21.03;15.13;;;;;;;-145.18;100.00;46656.50;4990617;28;20039;-68
2022/11/16 01:37:42;;;;;;;19.10;14.40;;;;;;;-145.18;100.00;46654.53;4972811;28;20475;-68
2022/11/16 01:40:09;;;;;;;21.70;14.43;;;;;;;-145.18;100.00;46660.41;4990271;28;20084;-68
2022/11/16 01:42:34;;;;;;;20.20;15.53;;;;;;;-145.18;100.00;46654.53;4990542;28;20030;-68
2022/11/16 01:45:05;;;;;;;21.57;15.33;;;;;;;-145.18;100.00;46654.53;4990291;28;20097;-68
2022/11/16 01:47:30;;;;;;;19.60;15.03;;;;;;;-145.18;100.00;46658.44;4990407;28;20553;-68
2022/11/16 01:50:09;;;;;;;18.57;15.00;;;;;;;-145.18;100.00;46654.53;4990380;28;20034;-68
2022/11/16 01:52:42;;;;;;;19.00;15.23;;;;;;;-145.18;100.00;46652.59;4990045;28;20031;-68
2022/11/16 01:55:09;;;;;;;21.10;15.47;;;;;;;-145.18;100.00;46660.41;4992717;28;20097;-68
2022/11/16 01:57:38;;;;;;;19.03;14.80;;;;;;;-145.18;100.00;46654.53;4994210;28;20046;-68
2022/11/16 02:00:07;;;;;;;22.70;15.30;;;;;;;-145.18;100.00;46660.41;4993995;28;20038;-68
2022/11/16 02:02:32;;;;;;;17.60;15.17;;;;;;;-145.18;100.00;46652.59;4993856;28;20040;-68
2022/11/16 02:04:59;;;;;;;22.33;15.40;;;;;;;-145.18;100.00;46654.53;4976154;28;20117;-68
2022/11/16 02:09:52;;;;;;;18.33;15.13;;;;;;;-145.18;100.00;46656.50;4994081;28;20554;-68
2022/11/16 02:10:34;;;;;;;16.97;13.50;;;;;;;-145.18;100.00;46656.50;4993998;28;20093;-68
2022/11/16 02:13:06;;;;;;;20.03;14.87;;;;;;;-145.18;100.00;46656.50;4993750;28;20040;-68
2022/11/16 02:15:50;;;;;;;19.30;14.80;;;;;;;-145.18;100.00;46662.34;4993988;28;20450;-68
2022/11/16 02:18:29;;;;;;;18.50;15.50;;;;;;;-145.18;100.00;46660.41;4993920;28;20109;-68
2022/11/16 02:21:03;;;;;;;16.90;14.53;;;;;;;-145.18;100.00;46658.44;4993771;28;20042;-68
2022/11/16 02:23:41;;;;;;;21.10;14.97;;;;;;;-145.18;100.00;46658.44;4993725;28;20038;-68
2022/11/16 02:26:48;;;;;;;16.57;14.37;;;;;;;-145.18;100.00;46658.44;4993561;28;20037;-68
2022/11/16 02:29:36;;;;;;;16.05;14.35;;;;;;;-145.18;100.00;46656.50;4960732;28;20510;-68
2022/11/16 02:32:14;;;;;;;18.37;15.07;;;;;;;-145.18;100.00;46656.50;4993309;28;20050;-68
2022/11/16 02:34:44;;;;;;;18.40;13.80;;;;;;;-145.18;100.00;46658.44;4993684;28;20085;-68
2022/11/16 02:37:16;;;;;;;13.47;11.20;;;;;;;-145.18;100.00;46656.50;4993464;28;20057;-68
2022/11/16 02:39:45;;;;;;;11.67;7.40;;;;;;;-145.18;100.00;46660.41;4993550;28;20026;-68
2022/11/16 02:42:16;;;;;;;10.20;8.20;;;;;;;-145.18;100.00;46660.41;4993183;28;20117;-68
2022/11/16 02:44:46;;;;;;;13.00;9.77;;;;;;;-145.18;100.00;46664.31;4993317;28;20078;-68
2022/11/16 02:47:18;;;;;;;12.13;9.50;;;;;;;-145.18;100.00;46666.25;4993219;28;20149;-68
2022/11/16 02:49:49;;;;;;;14.00;10.47;;;;;;;-145.18;100.00;46660.41;4993366;28;20092;-68
2022/11/16 02:52:16;;;;;;;15.57;11.63;;;;;;;-145.18;100.00;46662.34;4993059;28;20045;-68
2022/11/16 02:54:41;;;;;;;15.13;11.33;;;;;;;-145.18;100.00;46664.31;4993246;28;20034;-68
2022/11/16 02:57:07;;;;;;;17.80;12.10;;;;;;;-145.18;100.00;46668.22;4992829;28;20035;-68
2022/11/16 02:59:39;;;;;;;15.10;13.00;;;;;;;-145.18;100.00;46668.22;4993336;28;20471;-68
2022/11/16 03:02:26;;;;;;;14.73;11.90;;;;;;;-145.18;100.00;46662.34;5440865;23;20096;-68
2022/11/16 03:05:17;;;;;;;12.30;10.97;;;;;;;-145.18;100.00;46658.44;5027218;28;20540;-67
2022/11/16 03:07:49;;;;;;;13.30;11.80;;;;;;;-145.18;100.00;46662.34;5035460;28;20077;-68
2022/11/16 03:11:58;;;;;;;13.00;11.47;;;;;;;-145.18;100.00;46664.31;5041942;28;20037;-68
2022/11/16 03:13:05;;;;;;;13.23;11.73;;;;;;;-145.18;100.00;46664.31;5033309;28;20037;-68
2022/11/16 03:15:35;;;;;;;15.87;12.27;;;;;;;-145.18;100.00;46664.31;5048411;28;20036;-68
2022/11/16 03:18:02;;;;;;;13.70;11.20;;;;;;;-145.18;100.00;46666.25;5012255;28;20386;-68
2022/11/16 03:20:32;;;;;;;15.20;12.20;;;;;;;-145.18;100.00;46664.31;5012697;28;20030;-68
2022/11/16 03:23:02;;;;;;;18.97;13.43;;;;;;;-145.18;100.00;46668.22;5027980;28;20025;-68
2022/11/16 03:25:34;;;;;;;17.53;13.40;;;;;;;-145.18;100.00;46668.22;5044447;28;20033;-70
2022/11/16 03:28:22;;;;;;;14.97;12.33;;;;;;;-145.18;100.00;46672.13;5011417;28;20041;-68
2022/11/16 03:30:51;;;;;;;13.37;11.10;;;;;;;-145.18;100.00;46664.31;5026091;28;20021;-68
2022/11/16 03:33:42;;;;;;;13.53;9.57;;;;;;;-145.18;100.00;46664.31;5049027;28;20032;-70
2022/11/16 03:36:16;;;;;;;15.43;10.63;;;;;;;-145.18;100.00;46668.22;5024856;28;20036;-68
2022/11/16 03:38:44;;;;;;;12.47;9.40;;;;;;;-145.18;100.00;46670.16;5031673;28;20040;-68
2022/11/16 03:41:11;;;;;;;13.93;9.43;;;;;;;-145.18;100.00;46664.31;5031739;28;20033;-68
2022/11/16 03:43:38;;;;;;;13.57;9.80;;;;;;;-145.18;100.00;46668.22;5050029;28;20465;-68
2022/11/16 03:46:04;;;;;;;15.53;10.40;;;;;;;-145.18;100.00;46666.25;5051589;28;20057;-68
2022/11/16 03:48:40;;;;;;;17.70;9.50;;;;;;;-145.18;100.00;46666.25;5051094;28;20623;-68
2022/11/16 03:51:08;;;;;;;12.07;8.57;;;;;;;-145.18;100.00;46668.22;5051027;28;20409;-67
2022/11/16 03:53:34;;;;;;;16.07;9.53;;;;;;;-145.18;100.00;46670.16;5051126;28;20036;-67
2022/11/16 03:55:59;;;;;;;13.40;8.17;;;;;;;-145.18;100.00;46668.22;5051466;28;20029;-68
2022/11/16 03:58:25;;;;;;;10.93;8.67;;;;;;;-145.18;100.00;46668.22;5051167;28;20382;-67
2022/11/16 04:00:50;;;;;;;12.97;8.47;;;;;;;-145.18;100.00;46664.31;5049975;28;20069;-67
2022/11/16 04:03:16;;;;;;;12.40;8.43;;;;;;;-145.18;100.00;46666.25;5030778;28;20085;-67
2022/11/16 04:25:13;;;;;;;19.43;13.20;;;;;;;-145.18;100.00;46668.22;5011312;28;20104;-67
2022/11/16 04:30:22;;;;;;;27.23;14.73;;;;;;;-145.18;100.00;46664.31;5011682;28;20121;-67
2022/11/16 04:38:15;;;;;;;21.50;15.40;;;;;;;-145.18;100.00;46662.34;5010989;28;20466;-69
2022/11/16 04:40:41;;;;;;;22.93;16.60;;;;;;;-145.18;100.00;46668.22;5011252;28;20066;-69
2022/11/16 04:43:06;;;;;;;22.40;15.70;;;;;;;-145.18;100.00;46664.31;5010685;28;20037;-69
2022/11/16 04:48:18;;;;;;;24.90;16.57;;;;;;;-145.18;100.00;46666.25;5010512;28;20033;-69
2022/11/16 04:50:44;;;;;;;21.70;15.93;;;;;;;-145.18;100.00;46662.34;5010477;28;20030;-68
2022/11/16 04:53:09;;;;;;;23.47;16.27;;;;;;;-145.18;100.00;46668.22;5003488;28;20421;-68
2022/11/16 04:55:35;;;;;;;23.87;15.43;;;;;;;-145.18;100.00;46674.06;5012462;28;20041;-68
2022/11/16 04:58:01;;;;;;;22.87;15.47;;;;;;;-145.18;100.00;46672.13;5016821;28;20038;-68
2022/11/16 05:00:27;;;;;;;21.97;13.63;;;;;;;-145.18;100.00;46668.22;5019550;28;20436;-68
2022/11/16 05:02:52;;;;;;;22.73;13.83;;;;;;;-145.18;100.00;46664.31;5020368;28;20045;-69
2022/11/16 05:05:18;;;;;;;22.40;14.13;;;;;;;-145.18;100.00;46668.22;5013198;28;20052;-68
2022/11/16 05:07:43;;;;;;;20.20;12.80;;;;;;;-145.18;100.00;46664.31;5010495;28;20037;-68
2022/11/16 05:10:10;;;;;;;17.50;11.40;;;;;;;-145.18;100.00;46666.25;5010705;28;20099;-68
2022/11/16 05:12:35;;;;;;;18.67;11.80;;;;;;;-145.18;100.00;46668.22;5010386;28;20042;-68
2022/11/16 05:15:01;;;;;;;20.90;12.50;;;;;;;-145.18;100.00;46664.31;5010554;28;20290;-68
2022/11/16 05:17:27;;;;;;;18.43;11.17;;;;;;;-145.18;100.00;46670.16;5010535;28;20418;-68
2022/11/16 05:22:37;;;;;;;17.17;10.20;;;;;;;-145.18;100.00;46672.13;5010287;28;20271;-68
2022/11/16 05:25:03;;;;;;;16.53;9.73;;;;;;;-145.18;100.00;46668.22;5010177;28;20038;-68
2022/11/16 05:27:29;;;;;;;15.27;9.17;;;;;;;-145.18;100.00;46666.25;5010429;28;20026;-68
2022/11/16 05:29:55;;;;;;;13.53;8.63;;;;;;;-145.18;100.00;46670.16;5014502;28;20375;-68
2022/11/16 05:32:22;;;;;;;13.07;8.47;;;;;;;-145.18;100.00;46666.25;5016702;28;20049;-68
2022/11/16 05:34:48;;;;;;;14.53;8.70;;;;;;;-145.18;100.00;46668.22;5016916;28;20030;-68
2022/11/16 05:37:14;;;;;;;16.30;7.97;;;;;;;-145.18;100.00;46668.22;5016729;28;20732;-68
2022/11/16 05:39:40;;;;;;;13.77;8.40;;;;;;;-145.18;100.00;46670.16;5016741;28;20034;-68
2022/11/16 05:42:06;;;;;;;13.33;8.30;;;;;;;-145.18;100.00;46672.13;5016648;28;20271;-68
2022/11/16 05:44:32;;;;;;;13.70;8.00;;;;;;;-145.18;100.00;46668.22;5016632;28;20466;-68
2022/11/16 05:46:58;;;;;;;15.93;7.40;;;;;;;-145.18;100.00;46670.16;5016758;28;20081;-68
2022/11/16 05:49:23;;;;;;;13.37;7.60;;;;;;;-145.18;100.00;46670.16;5016369;28;20034;-68
2022/11/16 05:51:49;;;;;;;15.07;7.50;;;;;;;-145.18;100.00;46670.16;5016877;28;20034;-68
2022/11/16 05:54:20;;;;;;;14.80;6.83;;;;;;;-145.18;100.00;46670.16;5016503;28;20021;-68
2022/11/16 05:56:47;;;;;;;12.70;6.40;;;;;;;-145.18;100.00;46677.97;5016536;28;20270;-68
2022/11/16 05:59:14;;;;;;;14.83;6.67;;;;;;;-145.18;100.00;46674.06;5016405;28;20270;-68
2022/11/16 06:01:41;;;;;;;11.67;5.90;;;;;;;-145.18;100.00;46670.16;5011796;28;20283;-68
2022/11/16 06:04:06;;;;;;;11.97;5.80;;;;;;;-145.18;100.00;46670.16;5015953;28;20291;-68
2022/11/16 06:06:31;;;;;;;8.43;5.40;;;;;;;-145.18;100.00;46672.13;5015366;28;20283;-68
2022/11/16 06:08:57;;;;;;;11.03;5.37;;;;;;;-145.18;100.00;46676.03;5034491;28;20040;-68
2022/11/16 06:11:22;;;;;;;12.73;6.03;;;;;;;-145.18;100.00;46674.06;4993438;28;20113;-68
2022/11/16 06:13:48;;;;;;;14.07;4.60;;;;;;;-145.18;100.00;46674.06;5016236;28;20065;-68
2022/11/16 06:16:13;;;;;;;10.43;4.93;;;;;;;-145.18;100.00;46677.97;5015951;28;20041;-68
2022/11/16 06:18:41;;;;;;;10.60;4.63;;;;;;;-145.18;100.00;46676.03;5016174;28;20078;-68
2022/11/16 06:21:07;;;;;;;9.23;4.40;;;;;;;-145.18;100.00;46676.03;5015813;28;20040;-68
2022/11/16 06:23:33;;;;;;;12.70;4.70;;;;;;;-145.18;100.00;46674.06;4998467;28;20287;-68
2022/11/16 06:25:59;;;;;;;14.57;4.17;;;;;;;-145.18;100.00;46672.13;5015964;28;20282;-68
2022/11/16 06:28:24;;;;;;;10.67;3.53;;;;;;;-145.18;100.00;46674.06;5013210;28;20522;-68
2022/11/16 06:30:50;;;;;;;8.60;3.30;;;;;;;-145.18;100.00;46672.13;5012057;28;20037;-68
2022/11/16 06:33:15;;;;;;;13.50;4.43;;;;;;;-145.18;100.00;46677.97;5015594;28;20029;-68
2022/11/16 06:35:41;;;;;;;9.17;3.97;;;;;;;-145.18;100.00;46676.03;5003008;28;20114;-68
2022/11/16 06:38:07;;;;;;;12.17;3.73;;;;;;;-145.18;100.00;46676.03;5015236;28;20120;-68
2022/11/16 06:40:33;;;;;;;12.67;4.23;;;;;;;-145.18;100.00;46674.06;5012154;28;20048;-68
2022/11/16 06:42:58;;;;;;;12.70;4.30;;;;;;;-145.18;100.00;46674.06;5010693;28;20029;-68
2022/11/16 06:45:24;;;;;;;13.13;3.57;;;;;;;-145.18;100.00;46676.03;5022153;28;20049;-68
2022/11/16 06:47:50;;;;;;;11.83;4.57;;;;;;;-145.18;100.00;46672.13;5032010;28;20033;-68
2022/11/16 06:50:18;;;;;;;9.93;4.43;;;;;;;-145.18;100.00;46676.03;5026101;28;20765;-68
2022/11/16 06:52:47;;;;;;;11.63;3.90;;;;;;;-145.18;100.00;46681.88;5012464;28;20034;-68
2022/11/16 06:55:13;;;;;;;9.83;3.67;;;;;;;-145.18;100.00;46679.94;5004082;28;20810;-68
2022/11/16 06:57:39;;;;;;;10.60;3.20;;;;;;;-145.18;100.00;46677.97;5012518;28;20366;-68
2022/11/16 07:00:05;;;;;;;10.33;4.00;;;;;;;-145.18;100.00;46681.88;5012460;28;20064;-68
2022/11/16 07:02:31;;;;;;;7.23;3.07;;;;;;;-145.18;100.00;46676.03;5012576;28;20037;-68
2022/11/16 07:04:56;;;;;;;11.87;3.30;;;;;;;-145.18;100.00;46676.03;5012291;28;20307;-69
2022/11/16 07:07:21;;;;;;;14.63;3.20;;;;;;;-145.18;100.00;46672.13;5010558;28;20038;-68
2022/11/16 07:09:47;;;;;;;10.20;3.53;;;;;;;-145.18;100.00;46677.97;5010428;28;20096;-68
2022/11/16 07:12:12;;;;;;;12.83;4.67;;;;;;;-145.18;100.00;46676.03;5012168;28;20065;-68
2022/11/16 07:14:37;;;;;;;10.80;3.73;;;;;;;-145.18;100.00;46689.69;5012583;28;20096;-68
2022/11/16 07:17:03;;;;;;;13.47;4.03;;;;;;;-145.18;100.00;46677.97;5012371;28;20044;-68
2022/11/16 07:19:28;;;;;;;9.07;3.70;;;;;;;-145.18;100.00;46679.94;5012346;28;20437;-68
2022/11/16 07:21:54;;;;;;;9.80;3.67;;;;;;;-145.18;100.00;46676.03;5011265;28;20041;-68
2022/11/16 07:24:19;;;;;;;13.10;3.53;;;;;;;-145.18;100.00;46676.03;5010542;28;20042;-68
2022/11/16 07:26:44;;;;;;;10.07;4.07;;;;;;;-145.18;100.00;46676.03;5012361;28;20160;-68
2022/11/16 07:29:10;;;;;;;10.23;3.90;;;;;;;-145.18;100.00;46676.03;5011747;28;20065;-69
2022/11/16 07:31:35;;;;;;;14.70;3.73;;;;;;;-145.18;100.00;46676.03;5012516;28;20034;-68
2022/11/16 07:34:00;;;;;;;16.67;4.17;;;;;;;-145.18;100.00;46670.16;5011754;28;20066;-68
2022/11/16 07:36:26;;;;;;;16.10;4.50;;;;;;;-145.18;100.00;46666.25;5011958;28;20034;-68
2022/11/16 07:38:51;;;;;;;15.40;3.97;;;;;;;-145.18;100.00;46670.16;5011831;28;20069;-68
2022/11/16 07:41:18;;;;;;;21.50;4.13;;;;;;;-145.18;100.00;46676.03;5011682;28;20410;-68
2022/11/16 07:43:43;;;;;;;15.97;4.17;;;;;;;-145.18;100.00;46672.13;5011823;28;20445;-68
2022/11/16 07:46:12;;;;;;;13.80;4.00;;;;;;;-145.18;100.00;46674.06;5009408;28;20282;-69
2022/11/16 07:48:37;;;;;;;14.30;4.10;;;;;;;-145.18;100.00;46672.13;5003291;28;20430;-68
2022/11/16 07:51:05;;;;;;;13.17;4.20;;;;;;;-145.18;100.00;46670.16;5012559;28;20429;-68
2022/11/16 07:53:31;;;;;;;17.67;4.40;;;;;;;-145.18;100.00;46672.13;5021290;28;20390;-68
2022/11/16 07:55:57;;;;;;;10.60;4.10;;;;;;;-145.18;100.00;46676.03;5011548;28;20275;-68
2022/11/16 07:58:22;;;;;;;13.43;4.17;;;;;;;-145.18;100.00;46670.16;4993599;28;20285;-68
2022/11/16 08:00:48;;;;;;;12.67;4.10;;;;;;;-145.18;100.00;46674.06;5011675;28;20030;-68
2022/11/16 08:03:13;;;;;;;14.77;4.50;;;;;;;-145.18;100.00;46672.13;5015125;28;20061;-68
2022/11/16 08:05:39;;;;;;;15.07;4.60;;;;;;;-145.18;100.00;46681.88;5031116;28;20038;-68
2022/11/16 08:08:05;;;;;;;15.53;4.50;;;;;;;-145.18;100.00;46676.03;5030885;28;20033;-68
2022/11/16 08:10:30;;;;;;;16.50;5.33;;;;;;;-145.18;100.00;46674.06;5031238;28;20029;-68
2022/11/16 08:12:57;;;;;;;16.83;5.27;;;;;;;-145.18;100.00;46677.97;5031110;28;20069;-68
2022/11/16 08:15:24;;;;;;;19.63;6.23;;;;;;;-145.18;100.00;46674.06;5030744;28;20349;-68
2022/11/16 08:17:49;;;;;;;20.27;5.33;;;;;;;-145.18;100.00;46674.06;5031166;28;20502;-68
2022/11/16 08:20:15;;;;;;;15.47;5.57;;;;;;;-145.18;100.00;46674.06;5029740;28;20262;-68
2022/11/16 08:22:41;;;;;;;22.07;5.10;;;;;;;-145.18;100.00;46674.06;5009572;28;20128;-68
2022/11/16 08:25:07;;;;;;;16.57;5.23;;;;;;;-145.18;100.00;46668.22;5030269;28;20433;-68
2022/11/16 08:27:33;;;;;;;20.77;5.47;;;;;;;-145.18;100.00;46672.13;5031186;28;20346;-68
2022/11/16 08:29:58;;;;;;;20.47;5.50;;;;;;;-145.18;100.00;46679.94;5030699;28;20263;-68
2022/11/16 08:32:24;;;;;;;14.33;5.37;;;;;;;-145.18;100.00;46676.03;5029251;28;20113;-68
2022/11/16 08:34:49;;;;;;;14.67;5.20;;;;;;;-145.18;100.00;46676.03;5030091;28;20030;-68
2022/11/16 08:37:15;;;;;;;22.77;5.70;;;;;;;-145.18;100.00;46679.94;5012726;28;20069;-68
2022/11/16 08:39:40;;;;;;;19.87;6.43;;;;;;;-145.18;100.00;46677.97;5030737;28;20038;-68
2022/11/16 08:42:05;;;;;;;20.67;5.33;;;;;;;-145.18;100.00;46679.94;5030481;28;20686;-68
2022/11/16 08:44:31;;;;;;;16.23;4.43;;;;;;;-145.18;100.00;46677.97;5030519;28;20405;-68
2022/11/16 08:46:56;;;;;;;14.80;5.33;;;;;;;-145.18;100.00;46679.94;5030838;28;20042;-68
2022/11/16 08:49:22;;;;;;;13.10;5.00;;;;;;;-145.18;100.00;46677.97;5030211;28;20469;-68
2022/11/16 08:51:47;;;;;;;17.27;4.60;;;;;;;-145.18;100.00;46681.88;5030669;28;20460;-68
2022/11/16 08:54:12;;;;;;;16.23;4.20;;;;;;;-145.18;100.00;46679.94;5030210;28;20558;-68
2022/11/16 08:56:38;;;;;;;14.57;3.90;;;;;;;-145.18;100.00;46679.94;5030534;28;20456;-68
2022/11/16 08:59:03;;;;;;;14.70;4.23;;;;;;;-145.18;100.00;46679.94;5030030;28;20041;-68
2022/11/16 09:01:30;;;;;;;17.03;4.27;;;;;;;-145.18;100.00;46670.16;5030487;28;20030;-68
2022/11/16 09:03:56;;;;;;;14.87;4.20;;;;;;;-145.18;100.00;46677.97;5029389;28;20060;-69
2022/11/16 09:06:23;;;;;;;19.43;5.23;;;;;;;-145.18;100.00;46679.94;5020169;28;20283;-68
2022/11/16 09:08:48;;;;;;;11.53;3.17;;;;;;;-145.18;100.00;46677.97;5010447;28;20030;-68
2022/11/16 09:11:17;;;;;;;18.60;3.90;;;;;;;-145.18;100.00;46679.94;5010541;28;20282;-68
2022/11/16 09:13:44;;;;;;;15.93;4.13;;;;;;;-145.18;100.00;46677.97;5010647;28;20038;-68
2022/11/16 09:16:09;;;;;;;12.90;3.60;;;;;;;-145.18;100.00;46679.94;5010466;28;20633;-68
2022/11/16 09:18:35;;;;;;;11.13;3.37;;;;;;;-145.18;100.00;46679.94;5010199;28;20044;-68
2022/11/16 09:21:00;;;;;;;11.17;4.40;;;;;;;-145.18;100.00;46681.88;5010454;28;20061;-68
2022/11/16 09:23:26;;;;;;;10.80;3.10;;;;;;;-145.18;100.00;46681.88;5010112;28;20057;-68
2022/11/16 09:25:52;;;;;;;17.60;3.43;;;;;;;-145.18;100.00;46681.88;4993218;28;20125;-68
2022/11/16 09:28:17;;;;;;;22.03;3.73;;;;;;;-145.18;100.00;46687.75;4992381;28;20118;-68
2022/11/16 09:30:45;;;;;;;11.20;3.00;;;;;;;-145.18;100.00;46683.84;5010388;28;20030;-68
2022/11/16 09:33:11;;;;;;;15.80;3.60;;;;;;;-145.18;100.00;46685.78;5010001;28;20120;-68
2022/11/16 09:35:36;;;;;;;14.20;3.40;;;;;;;-145.18;100.00;46687.75;5010244;28;20357;-68
2022/11/16 09:38:02;;;;;;;15.20;3.70;;;;;;;-145.18;100.00;46691.66;5010510;28;20038;-68
2022/11/16 09:40:33;;;;;;;15.03;3.40;;;;;;;-145.18;100.00;46693.59;5010092;28;20034;-68
2022/11/16 09:43:25;;;;;;;11.80;3.17;;;;;;;-145.18;100.00;46691.66;5010541;28;20030;-68
2022/11/16 09:46:35;;;;;;;17.83;2.73;;;;;;;-145.18;100.00;46691.66;5010328;28;20299;-68
2022/11/16 09:49:08;;;;;;;17.83;4.73;;;;;;;-145.18;100.00;46699.47;4997128;28;20057;-68
2022/11/16 09:51:36;;;;;;;14.40;3.30;;;;;;;-145.18;100.00;46697.50;5010269;28;20056;-68
2022/11/16 09:54:07;;;;;;;17.07;3.47;;;;;;;-145.18;100.00;46695.56;4992114;28;20600;-68
2022/11/16 09:56:37;;;;;;;9.63;2.60;;;;;;;-145.18;100.00;46689.69;5010332;28;20037;-68
2022/11/16 09:59:11;;;;;;;12.60;2.70;;;;;;;-145.18;100.00;46689.69;5010290;28;20125;-68
2022/11/16 10:01:51;;;;;;;13.00;2.63;;;;;;;-145.18;100.00;46685.78;5010014;28;20493;-68
2022/11/16 10:04:25;;;;;;;16.30;2.90;;;;;;;-145.18;100.00;46677.97;5009217;28;20057;-68
2022/11/16 10:07:05;;;;;;;10.50;2.60;;;;;;;-145.18;100.00;46666.25;5010049;28;20034;-68
2022/11/16 10:09:30;;;;;;;10.63;2.93;;;;;;;-145.18;100.00;46662.34;4992144;28;20686;-68
2022/11/16 10:12:31;;;;;;;7.40;2.33;;;;;;;-145.18;100.00;46638.91;5009975;28;20073;-68
2022/11/16 10:15:08;;;;;;;10.33;2.60;;;;;;;-145.18;100.00;46615.47;4986331;28;20042;-68
2022/11/16 10:17:52;;;;;;;19.17;3.27;;;;;;;-145.18;100.00;46609.59;5013543;28;20065;-68
2022/11/16 10:20:42;;;;;;;9.33;2.23;;;;;;;-145.18;100.00;46592.03;5013138;28;20030;-68
2022/11/16 10:23:13;;;;;;;10.13;1.93;;;;;;;-145.18;100.00;46584.22;5013294;28;20160;-68
2022/11/16 10:25:42;;;;;;;14.23;3.23;;;;;;;-145.18;100.00;46582.25;5013289;28;20160;-68
2022/11/16 10:28:46;;;;;;;8.10;2.20;;;;;;;-145.18;100.00;46574.44;5013259;28;20030;-68
2022/11/16 10:31:29;;;;;;;13.90;3.40;;;;;;;-145.18;100.00;46572.50;4928251;28;20042;-68
2022/11/16 10:33:57;;;;;;;9.07;2.03;;;;;;;-145.18;100.00;46578.34;5011210;28;20112;-69
2022/11/16 10:36:26;;;;;;;12.83;2.20;;;;;;;-145.18;100.00;46590.06;5013372;28;20030;-68
2022/11/16 10:38:55;;;;;;;11.10;2.87;;;;;;;-145.18;100.00;46588.13;5013062;28;20034;-68
2022/11/16 10:41:30;;;;;;;11.73;2.20;;;;;;;-145.18;100.00;46593.97;5012760;28;20044;-68
2022/11/16 10:43:58;;;;;;;13.68;2.45;;;;;;;-145.18;100.00;46603.75;5012853;28;20121;-68
2022/11/16 10:46:32;;;;;;;7.40;2.13;;;;;;;-145.18;100.00;46603.75;5012064;28;20080;-68
2022/11/16 10:49:04;;;;;;;10.43;2.90;;;;;;;-145.18;100.00;46603.75;5011144;28;20101;-68
2022/11/16 10:51:29;;;;;;;7.67;2.03;;;;;;;-145.18;100.00;46615.47;5012760;28;20021;-69
2022/11/16 10:53:55;;;;;;;9.03;1.83;;;;;;;-145.18;100.00;46613.50;4994974;28;20115;-68
2022/11/16 10:56:28;;;;;;;12.63;2.00;;;;;;;-145.18;100.00;46619.38;5012804;28;20050;-68
2022/11/16 10:59:05;;;;;;;11.83;2.37;;;;;;;-145.18;100.00;46633.06;5012623;28;20076;-68
2022/11/16 11:01:35;;;;;;;9.67;1.80;;;;;;;-145.18;100.00;46629.13;4994944;28;20420;-68
2022/11/16 11:04:22;;;;;;;11.60;1.70;;;;;;;-145.18;100.00;46629.13;5011256;28;20050;-69
2022/11/16 11:06:50;;;;;;;12.27;1.90;;;;;;;-145.18;100.00;46631.09;5012568;28;20121;-69
2022/11/16 11:09:31;;;;;;;10.23;1.90;;;;;;;-145.18;100.00;46633.06;5011822;28;20038;-68
2022/11/16 11:14:59;;;;;;;8.50;2.13;;;;;;;-145.18;100.00;46621.31;5012253;28;20114;-68
2022/11/16 11:17:25;;;;;;;9.70;1.57;;;;;;;-145.18;100.00;46617.41;5012251;28;20034;-68
2022/11/16 11:19:59;;;;;;;10.87;2.00;;;;;;;-145.18;100.00;46617.41;5012093;28;20423;-68
2022/11/16 11:22:25;;;;;;;10.27;2.37;;;;;;;-145.18;100.00;46601.78;5012158;28;20449;-68
2022/11/16 11:24:51;;;;;;;7.10;2.10;;;;;;;-145.18;100.00;46605.69;5011781;28;20121;-69
2022/11/16 11:27:22;;;;;;;13.47;1.87;;;;;;;-145.18;100.00;46597.88;5010302;28;20038;-68
2022/11/16 11:29:52;;;;;;;6.87;1.40;;;;;;;-145.18;100.00;46601.78;5011885;28;20034;-68
2022/11/16 11:32:19;;;;;;;7.87;1.80;;;;;;;-145.18;100.00;46603.75;5011783;28;20485;-68
2022/11/16 11:34:49;;;;;;;10.90;2.83;;;;;;;-145.18;100.00;46601.78;5011869;28;20046;-68
2022/11/16 11:37:22;;;;;;;8.33;1.80;;;;;;;-145.18;100.00;46595.94;5011882;28;20135;-68
2022/11/16 11:39:47;;;;;;;10.40;1.73;;;;;;;-145.18;100.00;46599.84;5011145;28;20041;-68
2022/11/16 11:42:13;;;;;;;9.10;2.37;;;;;;;-145.18;100.00;46593.97;5011118;28;20042;-68